createdAt,value
2024-01-06T00:01:42.984Z,99594.66
2024-01-06T00:04:44.708Z,99590.03
2024-01-06T00:07:46.461Z,99590.37
2024-01-06T00:10:48.321Z,99589.09
2024-01-06T00:13:50.549Z,99579.78
2024-01-06T00:16:52.241Z,99573.94
2024-01-06T00:19:54.401Z,99580.16
2024-01-06T00:22:56.321Z,99583.53
2024-01-06T00:25:58.287Z,99574.16
2024-01-06T00:29:00.104Z,99573.25
2024-01-06T00:32:02.056Z,99570.06
2024-01-06T00:35:04.238Z,99575.22
2024-01-06T00:38:06.264Z,99576.31
2024-01-06T00:41:08.109Z,99564.41
2024-01-06T00:44:10.081Z,99559.87
2024-01-06T00:47:12.560Z,99560.16
2024-01-06T00:50:14.514Z,99556.47
2024-01-06T00:53:16.343Z,99557.81
2024-01-06T00:56:17.934Z,99553.91
2024-01-06T00:59:19.775Z,99543.75
2024-01-06T01:02:21.384Z,99550.78
2024-01-06T01:05:23.187Z,99555.62
2024-01-06T01:08:24.903Z,99555.41
2024-01-06T01:11:26.645Z,99547.16
2024-01-06T01:14:28.603Z,99546.47
2024-01-06T01:17:30.533Z,99554.25
2024-01-06T01:20:32.426Z,99548.09
2024-01-06T01:23:34.449Z,99544.28
2024-01-06T01:26:36.264Z,99533.53
2024-01-06T01:29:38.218Z,99537.94
2024-01-06T01:32:40.295Z,99539.28
2024-01-06T01:35:42.039Z,99545.03
2024-01-06T01:38:45.751Z,99538.72
2024-01-06T01:41:47.620Z,99534.72
2024-01-06T01:44:49.507Z,99537.97
2024-01-06T01:47:51.748Z,99535.63
2024-01-06T01:50:54.485Z,99524.94
2024-01-06T01:53:58.357Z,99524.75
2024-01-06T01:57:00.275Z,99519.09
2024-01-06T02:00:02.345Z,99512.28
2024-01-06T02:03:06.320Z,99509.91
2024-01-06T02:06:08.338Z,99505.09
2024-01-06T02:09:10.432Z,99505.91
2024-01-06T02:12:12.414Z,99515.13
2024-01-06T02:15:14.124Z,99506.75
2024-01-06T02:18:16.172Z,99512.09
2024-01-06T02:21:18.845Z,99506.25
2024-01-06T02:24:21.640Z,99504.25
2024-01-06T02:27:23.660Z,99499.34
2024-01-06T02:30:25.772Z,99495.81
2024-01-06T02:33:27.804Z,99499.69
2024-01-06T02:36:29.888Z,99493.66
2024-01-06T02:39:31.780Z,99500.69
2024-01-06T02:42:33.700Z,99494.16
2024-01-06T02:45:35.640Z,99488.16
2024-01-06T02:48:38.375Z,99488.81
2024-01-06T02:51:40.404Z,99469.25
2024-01-06T02:54:42.331Z,99474.94
2024-01-06T02:57:44.271Z,99475.94
2024-01-06T03:00:46.422Z,99467.41
2024-01-06T03:03:48.394Z,99469.78
2024-01-06T03:06:50.311Z,99468.56
2024-01-06T03:09:52.123Z,99466.53
2024-01-06T03:12:54.126Z,99460.56
2024-01-06T03:15:55.839Z,99455.53
2024-01-06T03:18:58.031Z,99450.19
2024-01-06T03:22:00.096Z,99438.94
2024-01-06T03:25:02.091Z,99428.63
2024-01-06T03:28:03.987Z,99424.44
2024-01-06T03:31:06.079Z,99430.13
2024-01-06T03:34:07.905Z,99421.47
2024-01-06T03:37:09.946Z,99421.81
2024-01-06T03:40:12.290Z,99433.50
2024-01-06T03:43:14.067Z,99437.84
2024-01-06T03:46:15.975Z,99433.50
2024-01-06T03:49:17.746Z,99447.22
2024-01-06T03:52:19.721Z,99447.53
2024-01-06T03:55:21.645Z,99444.50
2024-01-06T03:58:23.541Z,99454.03
2024-01-06T04:01:25.669Z,99464.91
2024-01-06T04:04:27.790Z,99479.44
2024-01-06T04:07:29.795Z,99462.41
2024-01-06T04:10:31.722Z,99474.94
2024-01-06T04:13:33.400Z,99468.56
2024-01-06T04:16:35.265Z,99474.09
2024-01-06T04:19:37.362Z,99454.88
2024-01-06T04:22:39.587Z,99458.22
2024-01-06T04:25:41.547Z,99471.25
2024-01-06T04:28:43.482Z,99475.22
2024-01-06T04:31:45.507Z,99478.19
2024-01-06T04:34:47.515Z,99472.88
2024-01-06T04:37:49.406Z,99470.22
2024-01-06T04:40:51.409Z,99475.59
2024-01-06T04:43:53.069Z,99471.88
2024-01-06T04:46:54.667Z,99466.22
2024-01-06T04:49:56.623Z,99455.53
2024-01-06T04:52:58.445Z,99462.72
2024-01-06T04:56:00.319Z,99465.22
2024-01-06T04:59:02.173Z,99463.84
2024-01-06T05:02:04.429Z,99456.31
2024-01-06T05:05:06.426Z,99444.78
2024-01-06T05:08:08.353Z,99451.97
2024-01-06T05:11:10.368Z,99438.09
2024-01-06T05:14:12.772Z,99443.28
2024-01-06T05:17:14.415Z,99443.78
2024-01-06T05:20:16.087Z,99441.78
2024-01-06T05:23:18.030Z,99442.81
2024-01-06T05:26:20.010Z,99438.94
2024-01-06T05:29:21.937Z,99432.75
2024-01-06T05:32:23.756Z,99437.59
2024-01-06T05:35:25.706Z,99444.41
2024-01-06T05:38:27.491Z,99443.13
2024-01-06T05:41:29.422Z,99447.31
2024-01-06T05:44:31.353Z,99450.81
2024-01-06T05:47:33.542Z,99447.81
2024-01-06T05:50:35.357Z,99460.66
2024-01-06T05:53:37.067Z,99467.87
2024-01-06T05:56:38.905Z,99476.22
2024-01-06T05:59:40.823Z,99474.53
2024-01-06T06:02:42.711Z,99475.16
2024-01-06T06:05:44.690Z,99466.13
2024-01-06T06:08:46.924Z,99475.50
2024-01-06T06:11:48.679Z,99463.69
2024-01-06T06:14:50.424Z,99468.66
2024-01-06T06:17:52.338Z,99467.81
2024-01-06T06:20:54.248Z,99473.50
2024-01-06T06:23:56.161Z,99461.78
2024-01-06T06:26:57.857Z,99470.81
2024-01-06T06:29:59.705Z,99468.13
2024-01-06T06:33:01.507Z,99473.78
2024-01-06T06:36:03.693Z,99477.31
2024-01-06T06:39:05.578Z,99480.50
2024-01-06T06:42:07.421Z,99475.16
2024-01-06T06:45:09.644Z,99473.09
2024-01-06T06:48:11.710Z,99460.91
2024-01-06T06:51:13.728Z,99448.03
2024-01-06T06:54:16.734Z,99451.00
2024-01-06T06:57:18.714Z,99455.34
2024-01-06T07:00:20.942Z,99460.56
2024-01-06T07:03:23.005Z,99468.13
2024-01-06T07:06:25.008Z,99467.59
2024-01-06T07:09:26.969Z,99463.09
2024-01-06T07:12:28.856Z,99465.91
2024-01-06T07:15:30.499Z,99472.94
2024-01-06T07:18:32.326Z,99465.75
2024-01-06T07:21:34.236Z,99451.56
2024-01-06T07:24:35.972Z,99454.75
2024-01-06T07:27:37.634Z,99449.59
2024-01-06T07:30:39.408Z,99448.69
2024-01-06T07:33:41.260Z,99448.31
2024-01-06T07:36:43.319Z,99454.59
2024-01-06T07:39:45.032Z,99456.28
2024-01-06T07:42:46.955Z,99462.91
2024-01-06T07:45:48.578Z,99455.38
2024-01-06T07:48:50.576Z,99447.81
2024-01-06T07:51:52.238Z,99448.31
2024-01-06T07:54:54.255Z,99431.28
2024-01-06T07:57:56.386Z,99450.22
2024-01-06T08:00:58.144Z,99448.03
2024-01-06T08:04:00.873Z,99448.47
2024-01-06T08:07:02.802Z,99442.66
2024-01-06T08:10:04.945Z,99456.88
2024-01-06T08:13:06.760Z,99457.00
2024-01-06T08:16:08.520Z,99453.88
2024-01-06T08:19:10.579Z,99456.72
2024-01-06T08:22:12.324Z,99462.41
2024-01-06T08:25:14.024Z,99467.41
2024-01-06T08:28:15.731Z,99465.09
2024-01-06T08:31:17.740Z,99475.50
2024-01-06T08:34:20.054Z,99465.41
2024-01-06T08:37:21.749Z,99469.44
2024-01-06T08:40:23.719Z,99474.16
2024-01-06T08:43:25.337Z,99464.78
2024-01-06T08:46:26.986Z,99476.84
2024-01-06T08:49:28.713Z,99471.00
2024-01-06T08:52:30.821Z,99482.91
2024-01-06T08:55:32.635Z,99481.03
2024-01-06T08:58:34.619Z,99474.53
2024-01-06T09:01:36.535Z,99475.87
2024-01-06T09:04:38.506Z,99477.88
2024-01-06T09:07:40.125Z,99462.78
2024-01-06T09:10:42.054Z,99477.22
2024-01-06T09:13:43.706Z,99474.09
2024-01-06T09:16:45.709Z,99468.41
2024-01-06T09:19:47.721Z,99469.41
2024-01-06T09:22:49.721Z,99462.59
2024-01-06T09:25:51.399Z,99460.44
2024-01-06T09:28:53.615Z,99452.25
2024-01-06T09:31:55.559Z,99451.56
2024-01-06T09:34:57.603Z,99455.59
2024-01-06T09:37:59.687Z,99456.78
2024-01-06T09:41:01.385Z,99451.59
2024-01-06T09:44:03.070Z,99445.59
2024-01-06T09:47:05.663Z,99445.28
2024-01-06T09:50:09.980Z,99437.91
2024-01-06T09:53:13.001Z,99442.28
2024-01-06T09:56:16.470Z,99448.12
2024-01-06T09:59:19.216Z,99449.31
2024-01-06T10:02:21.084Z,99455.16
2024-01-06T10:05:23.200Z,99446.75
2024-01-06T10:08:26.888Z,99444.59
2024-01-06T10:11:28.801Z,99454.94
2024-01-06T10:14:30.484Z,99453.59
2024-01-06T10:17:32.436Z,99459.63
2024-01-06T10:20:34.295Z,99451.44
2024-01-06T10:23:36.208Z,99456.16
2024-01-06T10:26:37.884Z,99448.62
2024-01-06T10:29:39.706Z,99446.63
2024-01-06T10:32:41.388Z,99434.75
2024-01-06T10:35:43.252Z,99434.94
2024-01-06T10:38:46.235Z,99423.72
2024-01-06T10:41:50.129Z,99419.53
2024-01-06T10:44:52.072Z,99421.69
2024-01-06T10:47:55.846Z,99415.38
2024-01-06T10:50:59.643Z,99403.31
2024-01-06T10:54:02.385Z,99409.13
2024-01-06T10:57:05.809Z,99409.81
2024-01-06T11:00:08.040Z,99402.12
2024-01-06T11:03:10.948Z,99396.28
2024-01-06T11:06:13.452Z,99392.25
2024-01-06T11:09:26.080Z,99387.06
2024-01-06T11:12:27.788Z,99377.69
2024-01-06T11:15:47.779Z,99365.81
2024-01-06T11:18:49.858Z,99363.47
2024-01-06T11:21:51.973Z,99354.13
2024-01-06T11:24:57.890Z,99355.91
2024-01-06T11:28:08.966Z,99345.09
2024-01-06T11:31:11.021Z,99349.94
2024-01-06T11:34:19.340Z,99335.22
2024-01-06T11:37:25.398Z,99334.22
2024-01-06T11:40:33.929Z,99324.53
2024-01-06T11:43:36.207Z,99316.66
2024-01-06T11:46:38.364Z,99302.94
2024-01-06T11:49:40.268Z,99305.78
2024-01-06T11:52:42.361Z,99300.06
2024-01-06T11:55:44.306Z,99303.75
2024-01-06T11:58:47.112Z,99302.75
2024-01-06T12:01:48.965Z,99300.44
2024-01-06T12:04:52.029Z,99295.91
2024-01-06T12:07:58.434Z,99293.06
2024-01-06T12:11:06.493Z,99284.53
2024-01-06T12:14:08.428Z,99294.91
2024-01-06T12:17:11.273Z,99304.12
2024-01-06T12:20:13.378Z,99303.94
2024-01-06T12:23:25.614Z,99279.69
2024-01-06T12:26:30.063Z,99276.66
2024-01-06T12:29:32.293Z,99267.31
2024-01-06T12:32:34.321Z,99272.31
2024-01-06T12:35:36.292Z,99270.66
2024-01-06T12:38:38.756Z,99264.81
2024-01-06T12:41:44.009Z,99256.09
2024-01-06T12:44:45.945Z,99265.62
2024-01-06T12:47:47.982Z,99272.66
2024-01-06T12:50:50.009Z,99293.72
2024-01-06T12:53:51.952Z,99293.06
2024-01-06T12:56:53.923Z,99291.72
2024-01-06T12:59:55.956Z,99278.84
2024-01-06T13:02:57.747Z,99291.87
2024-01-06T13:06:01.030Z,99299.75
2024-01-06T13:09:02.810Z,99291.41
2024-01-06T13:12:05.276Z,99293.06
2024-01-06T13:15:08.816Z,99286.03
2024-01-06T13:18:10.855Z,99293.41
2024-01-06T13:21:12.641Z,99289.22
2024-01-06T13:24:14.623Z,99297.91
2024-01-06T13:27:16.531Z,99282.88
2024-01-06T13:30:19.445Z,99295.41
2024-01-06T13:33:35.742Z,99290.56
2024-01-06T13:36:37.737Z,99281.69
2024-01-06T13:39:39.814Z,99284.69
2024-01-06T13:42:41.735Z,99286.69
2024-01-06T13:45:44.637Z,99289.06
2024-01-06T13:48:49.236Z,99281.69
2024-01-06T13:51:51.258Z,99283.84
2024-01-06T13:54:53.436Z,99277.00
2024-01-06T13:57:55.467Z,99267.13
2024-01-06T14:00:57.500Z,99272.31
2024-01-06T14:03:59.622Z,99271.81
2024-01-06T14:07:05.136Z,99273.50
2024-01-06T14:10:07.771Z,99259.09
2024-01-06T14:13:09.785Z,99269.63
2024-01-06T14:16:11.788Z,99251.91
2024-01-06T14:19:13.880Z,99251.06
2024-01-06T14:22:15.985Z,99260.63
2024-01-06T14:25:17.961Z,99265.47
2024-01-06T14:28:19.976Z,99281.84
2024-01-06T14:31:21.691Z,99282.34
2024-01-06T14:34:23.599Z,99279.34
2024-01-06T14:37:25.638Z,99291.03
2024-01-06T14:40:27.330Z,99280.84
2024-01-06T14:43:28.965Z,99268.97
2024-01-06T14:46:30.683Z,99266.78
2024-01-06T14:49:32.743Z,99277.34
2024-01-06T14:52:34.720Z,99289.38
2024-01-06T14:55:36.660Z,99291.06
2024-01-06T14:58:38.370Z,99283.19
2024-01-06T15:01:46.298Z,99281.00
2024-01-06T15:04:49.047Z,99288.88
2024-01-06T15:07:50.841Z,99277.84
2024-01-06T15:10:52.599Z,99276.50
2024-01-06T15:13:54.619Z,99267.97
2024-01-06T15:16:56.248Z,99266.78
2024-01-06T15:19:57.954Z,99260.78
2024-01-06T15:22:59.734Z,99261.59
2024-01-06T15:26:01.407Z,99264.94
2024-01-06T15:29:03.238Z,99262.63
2024-01-06T15:32:05.425Z,99262.63
2024-01-06T15:35:07.494Z,99256.44
2024-01-06T15:38:09.301Z,99256.91
2024-01-06T15:41:11.262Z,99251.56
2024-01-06T15:44:13.164Z,99240.72
2024-01-06T15:47:15.261Z,99256.25
2024-01-06T15:50:17.284Z,99253.56
2024-01-06T15:53:19.921Z,99244.19
2024-01-06T15:56:21.826Z,99246.72
2024-01-06T15:59:23.773Z,99259.59
2024-01-06T16:02:25.466Z,99243.19
2024-01-06T16:05:27.394Z,99237.81
2024-01-06T16:08:29.201Z,99244.34
2024-01-06T16:11:31.136Z,99237.16
2024-01-06T16:14:36.157Z,99234.00
2024-01-06T16:17:38.709Z,99240.19
2024-01-06T16:20:40.595Z,99236.16
2024-01-06T16:23:42.233Z,99235.66
2024-01-06T16:26:45.329Z,99230.47
2024-01-06T16:29:47.287Z,99230.31
2024-01-06T16:32:49.008Z,99240.84
2024-01-06T16:35:50.927Z,99236.16
2024-01-06T16:38:52.759Z,99233.66
2024-01-06T16:41:54.592Z,99225.63
2024-01-06T16:44:56.246Z,99227.62
2024-01-06T16:47:58.292Z,99227.47
2024-01-06T16:51:00.026Z,99222.75
2024-01-06T16:54:02.011Z,99225.44
2024-01-06T16:57:04.028Z,99220.44
2024-01-06T17:00:06.363Z,99218.94
2024-01-06T17:03:08.714Z,99219.75
2024-01-06T17:06:10.439Z,99220.09
2024-01-06T17:09:12.374Z,99219.59
2024-01-06T17:12:14.495Z,99219.91
2024-01-06T17:15:16.316Z,99230.66
2024-01-06T17:18:18.362Z,99234.16
2024-01-06T17:21:20.461Z,99236.16
2024-01-06T17:24:22.458Z,99239.84
2024-01-06T17:27:24.547Z,99234.66
2024-01-06T17:30:26.532Z,99238.81
2024-01-06T17:33:28.467Z,99228.47
2024-01-06T17:36:30.227Z,99235.81
2024-01-06T17:39:31.994Z,99228.94
2024-01-06T17:42:33.768Z,99236.97
2024-01-06T17:45:35.771Z,99239.53
2024-01-06T17:48:37.630Z,99240.00
2024-01-06T17:51:39.477Z,99235.00
2024-01-06T17:54:41.481Z,99233.47
2024-01-06T17:57:43.791Z,99236.81
2024-01-06T18:00:45.632Z,99231.63
2024-01-06T18:03:47.728Z,99228.78
2024-01-06T18:06:49.805Z,99225.44
2024-01-06T18:09:52.089Z,99228.09
2024-01-06T18:12:53.831Z,99227.94
2024-01-06T18:15:55.620Z,99227.78
2024-01-06T18:18:57.700Z,99223.13
2024-01-06T18:21:59.803Z,99224.13
2024-01-06T18:25:01.662Z,99216.59
2024-01-06T18:28:03.925Z,99223.78
2024-01-06T18:31:05.822Z,99217.75
2024-01-06T18:34:07.719Z,99226.63
2024-01-06T18:37:09.702Z,99223.78
2024-01-06T18:40:12.379Z,99220.09
2024-01-06T18:43:14.367Z,99226.78
2024-01-06T18:46:16.397Z,99223.97
2024-01-06T18:49:18.439Z,99222.75
2024-01-06T18:52:20.302Z,99216.25
2024-01-06T18:55:22.121Z,99215.22
2024-01-06T18:58:23.847Z,99213.06
2024-01-06T19:01:25.737Z,99206.22
2024-01-06T19:04:27.521Z,99208.03
2024-01-06T19:07:29.305Z,99204.84
2024-01-06T19:10:33.463Z,99192.13
2024-01-06T19:13:36.777Z,99201.50
2024-01-06T19:16:38.711Z,99200.34
2024-01-06T19:19:40.867Z,99198.66
2024-01-06T19:22:54.153Z,99195.34
2024-01-06T19:26:04.596Z,99192.66
2024-01-06T19:29:06.364Z,99192.81
2024-01-06T19:32:08.569Z,99184.59
2024-01-06T19:35:10.379Z,99189.62
2024-01-06T19:38:12.174Z,99185.75
2024-01-06T19:41:13.952Z,99194.31
2024-01-06T19:44:15.703Z,99187.78
2024-01-06T19:47:17.497Z,99189.62
2024-01-06T19:50:19.512Z,99190.97
2024-01-06T19:53:21.475Z,99183.59
2024-01-06T19:56:23.097Z,99190.44
2024-01-06T19:59:24.775Z,99182.59
2024-01-06T20:02:26.819Z,99184.09
2024-01-06T20:05:28.718Z,99180.91
2024-01-06T20:08:30.859Z,99186.94
2024-01-06T20:11:32.846Z,99181.28
2024-01-06T20:14:34.629Z,99177.87
2024-01-06T20:17:36.393Z,99170.72
2024-01-06T20:20:38.388Z,99180.75
2024-01-06T20:23:40.983Z,99177.22
2024-01-06T20:26:42.749Z,99175.09
2024-01-06T20:29:44.463Z,99172.56
2024-01-06T20:32:46.313Z,99165.69
2024-01-06T20:35:48.134Z,99171.56
2024-01-06T20:38:50.073Z,99167.88
2024-01-06T20:41:52.105Z,99172.72
2024-01-06T20:44:53.830Z,99164.53
2024-01-06T20:47:55.655Z,99159.66
2024-01-06T20:50:57.493Z,99161.34
2024-01-06T20:53:59.292Z,99152.97
2024-01-06T20:57:00.978Z,99157.66
2024-01-06T21:00:02.727Z,99154.66
2024-01-06T21:03:04.727Z,99157.16
2024-01-06T21:06:07.288Z,99149.59
2024-01-06T21:09:09.736Z,99151.81
2024-01-06T21:12:11.924Z,99153.13
2024-01-06T21:15:13.972Z,99155.50
2024-01-06T21:18:15.755Z,99152.09
2024-01-06T21:21:17.632Z,99142.09
2024-01-06T21:24:21.188Z,99144.25
2024-01-06T21:27:23.435Z,99146.28
2024-01-06T21:30:25.397Z,99141.59
2024-01-06T21:33:27.187Z,99145.09
2024-01-06T21:36:28.894Z,99135.75
2024-01-06T21:39:30.601Z,99136.41
2024-01-06T21:42:32.376Z,99130.88
2024-01-06T21:45:34.115Z,99133.56
2024-01-06T21:48:35.842Z,99136.41
2024-01-06T21:51:51.412Z,99140.75
2024-01-06T21:54:53.198Z,99133.38
2024-01-06T21:57:54.963Z,99130.22
2024-01-06T22:00:56.705Z,99122.19
2024-01-06T22:03:58.687Z,99117.47
2024-01-06T22:07:00.619Z,99111.47
2024-01-06T22:10:02.469Z,99116.13
2024-01-06T22:13:04.550Z,99110.78
2024-01-06T22:16:06.882Z,99113.97
2024-01-06T22:19:11.648Z,99113.97
2024-01-06T22:22:13.604Z,99106.28
2024-01-06T22:25:16.338Z,99105.44
2024-01-06T22:28:18.345Z,99113.97
2024-01-06T22:31:20.624Z,99109.44
2024-01-06T22:34:22.779Z,99115.31
2024-01-06T22:37:24.754Z,99117.00
2024-01-06T22:40:26.754Z,99107.28
2024-01-06T22:43:28.496Z,99103.91
2024-01-06T22:46:30.845Z,99109.81
2024-01-06T22:49:32.860Z,99103.63
2024-01-06T22:52:34.508Z,99100.75
2024-01-06T22:55:36.389Z,99105.75
2024-01-06T22:58:38.147Z,99106.28
2024-01-06T23:01:40.211Z,99104.59
2024-01-06T23:04:42.362Z,99105.41
2024-01-06T23:07:44.388Z,99106.94
2024-01-06T23:10:46.297Z,99101.41
2024-01-06T23:13:47.948Z,99110.94
2024-01-06T23:16:49.897Z,99104.59
2024-01-06T23:19:53.924Z,99105.28
2024-01-06T23:22:55.896Z,99097.38
2024-01-06T23:25:58.480Z,99091.53
2024-01-06T23:29:00.158Z,99104.25
2024-01-06T23:32:02.036Z,99102.88
2024-01-06T23:35:03.947Z,99098.56
2024-01-06T23:38:05.910Z,99103.75
2024-01-06T23:41:07.943Z,99108.25
2024-01-06T23:44:09.854Z,99102.06
2024-01-06T23:47:11.979Z,99099.22
2024-01-06T23:50:13.698Z,99099.22
2024-01-06T23:53:15.645Z,99099.56
2024-01-06T23:56:17.574Z,99095.72
2024-01-06T23:59:19.808Z,99095.03
